Peabody, KS (66866)

5:51 PM CDT on May 04, 2015 (GMT -0500)
Goessel Goerzen Corner | | Change Station
CLOSE
Current Station
Personal Weather Station
Location: Goessel, KS
Elevation: 1539 ft
Nearby Weather Stations
Active Advisory: Severe Thunderstorm Watch

Elev 1539 ft 38.19 °N, 97.30 °W | Updated 13 seconds ago

Partly Cloudy
Partly Cloudy
78.5 °F
Feels Like 80 °F
N
7.0
Wind Variable Wind from South
Gusts 9.0 mph

Today
High -- | Low -- °F
--% Chance of Precip.
Yesterday
High -- | Low -- °F
Precip. -- in
6:28 AM 8:22 PM
Full, 99% visible
Pressure 29.96 in
Visibility 10.0 miles
Clouds Scattered Clouds 4800 ft
Mostly Cloudy 5500 ft
Heat Index 80 °F
Dew Point 63 °F
Humidity 59%
Rainfall 0.00 in
Snow Depth Not available.
UV 2 out of 12
Pollen 7.70 out of 12
Air Quality Not available.
Flu Activity Sporadic
METAR KEWK 042235Z AUTO 18018G22KT 10SM SCT048 BKN055 26/16 A2996 RMK AO1

More Conditions Fewer Conditions

Pressure 29.96 in
Visibility 10.0 miles
Clouds Scattered Clouds 4800 ft
Mostly Cloudy 5500 ft
Heat Index 80 °F
Dew Point 63 °F
Humidity 59%
Rainfall 0.00 in
Snow Depth Not available.
UV 2 out of 12
Pollen 7.70 out of 12
Air Quality Not available.
Flu Activity Sporadic
METAR KEWK 042235Z AUTO 18018G22KT 10SM SCT048 BKN055 26/16 A2996 RMK AO1

More Conditions Fewer Conditions

Nepal has a long way to go to dig out and rebuild from a devastating earthquake. We have teamed up with several charities and organizations to make contributing to the relief effort as easy as possible.
How you can help: Portlight Strategies | Red Cross

10-Day Weather Forecast

Almanac

Astronomy

May. 04, 2015 Rise Set
Actual Time
Civil Twilight
Nautical Twilight
Astronomical Twilight
Moon
Length of Visible Light
Length of Day
Tomorrow will be .
, % of the Moon is Illuminated

Today's Extremes

State Highs State Lows

Community

WunderPhotos

Upload Photos

1,818,720 photos uploaded!

WunderBlogs® & News

Nearby

Air Quality

  Air Quality AQ Index Pollutant
Not available.

Snow Depth

Station Depth Elevation

Earthquake Activity

City Distance Mag. Time & Date
Minimum magnitude displayed is 2.5.

Coastal Water Temperatures

Place Temperature

Stations

Nearby Weather Stations

Station Location Temp. Windchill Dew Point Humidity Wind Precip. Elev Updated Type
                   
Severe Thunderstorm Watch
Statement as of 4:03 PM CDT on May 04, 2015

Severe Thunderstorm Watch 130 remains in effect until 900 PM CDT
for the following locations


KS
. Kansas counties included are

Atchison Barton Brown
Clay cloud Dickinson
Doniphan Ellsworth Geary
Jackson Jefferson Jewell
Leavenworth Lincoln McPherson
Marion Marshall Mitchell
Morris Nemaha Osborne
Ottawa Pottawatomie Republic
Rice Riley Rooks
Russell Saline Shawnee
Wabaunsee Washington